sensor_id;sensor_type;location;lat;lon;timestamp;pressure;altitude;pressure_sealevel;temperature;humidity
51369;BME280;37459;51.416;5.502;2022-12-20T00:00:42;100725.75;;;7.81;96.49
51369;BME280;37459;51.416;5.502;2022-12-20T00:03:09;100728.84;;;7.85;95.99
51369;BME280;37459;51.416;5.502;2022-12-20T00:05:38;100730.06;;;7.82;96.73
51369;BME280;37459;51.416;5.502;2022-12-20T00:08:05;100718.69;;;7.80;96.04
51369;BME280;37459;51.416;5.502;2022-12-20T00:10:34;100734.03;;;7.86;95.92
51369;BME280;37459;51.416;5.502;2022-12-20T00:13:01;100739.50;;;7.99;95.32
51369;BME280;37459;51.416;5.502;2022-12-20T00:15:28;100734.06;;;7.93;95.54
51369;BME280;37459;51.416;5.502;2022-12-20T00:17:55;100733.25;;;7.92;95.80
51369;BME280;37459;51.416;5.502;2022-12-20T00:20:22;100719.66;;;7.94;95.62
51369;BME280;37459;51.416;5.502;2022-12-20T00:22:50;100718.59;;;7.95;95.75
51369;BME280;37459;51.416;5.502;2022-12-20T00:25:18;100712.66;;;7.99;95.47
51369;BME280;37459;51.416;5.502;2022-12-20T00:27:45;100718.66;;;8.01;95.31
51369;BME280;37459;51.416;5.502;2022-12-20T00:30:12;100697.31;;;7.93;95.37
51369;BME280;37459;51.416;5.502;2022-12-20T00:32:39;100706.44;;;7.99;95.48
51369;BME280;37459;51.416;5.502;2022-12-20T00:35:06;100714.53;;;8.06;94.59
51369;BME280;37459;51.416;5.502;2022-12-20T00:37:32;100717.88;;;8.08;94.42
51369;BME280;37459;51.416;5.502;2022-12-20T00:40:00;100706.09;;;8.09;95.28
51369;BME280;37459;51.416;5.502;2022-12-20T00:42:27;100701.16;;;8.12;94.41
51369;BME280;37459;51.416;5.502;2022-12-20T00:44:53;100695.34;;;8.09;94.15
51369;BME280;37459;51.416;5.502;2022-12-20T00:47:20;100696.63;;;8.13;94.39
51369;BME280;37459;51.416;5.502;2022-12-20T00:49:47;100655.63;;;7.97;94.26
51369;BME280;37459;51.416;5.502;2022-12-20T00:52:13;100695.59;;;8.14;94.50
51369;BME280;37459;51.416;5.502;2022-12-20T00:54:40;100700.25;;;8.33;92.83
51369;BME280;37459;51.416;5.502;2022-12-20T00:57:08;100705.00;;;8.31;93.24
51369;BME280;37459;51.416;5.502;2022-12-20T00:59:34;100697.16;;;8.36;93.62
51369;BME280;37459;51.416;5.502;2022-12-20T01:02:01;100700.47;;;8.38;92.62
51369;BME280;37459;51.416;5.502;2022-12-20T01:04:27;100700.47;;;8.38;93.36
51369;BME280;37459;51.416;5.502;2022-12-20T01:06:54;100686.38;;;8.30;93.97
51369;BME280;37459;51.416;5.502;2022-12-20T01:09:20;100698.59;;;8.32;94.09
51369;BME280;37459;51.416;5.502;2022-12-20T01:11:47;100713.69;;;8.33;94.66
51369;BME280;37459;51.416;5.502;2022-12-20T01:14:15;100709.56;;;8.37;95.53
51369;BME280;37459;51.416;5.502;2022-12-20T01:16:43;100718.22;;;8.33;95.90
51369;BME280;37459;51.416;5.502;2022-12-20T01:19:12;100715.28;;;8.28;96.68
51369;BME280;37459;51.416;5.502;2022-12-20T01:21:39;100716.56;;;8.32;97.42
51369;BME280;37459;51.416;5.502;2022-12-20T01:24:09;100699.81;;;8.30;98.79
51369;BME280;37459;51.416;5.502;2022-12-20T01:26:35;100698.38;;;8.34;100.00
51369;BME280;37459;51.416;5.502;2022-12-20T01:29:02;100710.34;;;8.25;100.00
51369;BME280;37459;51.416;5.502;2022-12-20T01:31:30;100699.34;;;8.19;100.00
51369;BME280;37459;51.416;5.502;2022-12-20T01:33:57;100708.63;;;8.17;100.00
51369;BME280;37459;51.416;5.502;2022-12-20T01:36:26;100705.16;;;8.23;100.00
51369;BME280;37459;51.416;5.502;2022-12-20T01:38:55;100708.03;;;8.21;100.00
51369;BME280;37459;51.416;5.502;2022-12-20T01:41:22;100696.66;;;8.19;100.00
51369;BME280;37459;51.416;5.502;2022-12-20T01:43:51;100701.34;;;8.11;100.00
51369;BME280;37459;51.416;5.502;2022-12-20T01:46:19;100693.56;;;8.16;100.00
51369;BME280;37459;51.416;5.502;2022-12-20T01:48:53;100680.72;;;8.11;100.00
51369;BME280;37459;51.416;5.502;2022-12-20T01:51:21;100680.47;;;8.06;100.00
51369;BME280;37459;51.416;5.502;2022-12-20T01:53:52;100668.69;;;8.00;100.00
51369;BME280;37459;51.416;5.502;2022-12-20T01:56:20;100615.41;;;7.69;100.00
51369;BME280;37459;51.416;5.502;2022-12-20T01:58:48;100639.22;;;7.79;100.00
51369;BME280;37459;51.416;5.502;2022-12-20T02:01:16;100654.91;;;7.82;100.00
51369;BME280;37459;51.416;5.502;2022-12-20T02:03:43;100650.19;;;7.84;100.00
51369;BME280;37459;51.416;5.502;2022-12-20T02:06:17;100657.16;;;7.78;100.00
51369;BME280;37459;51.416;5.502;2022-12-20T02:08:45;100665.44;;;7.77;100.00
51369;BME280;37459;51.416;5.502;2022-12-20T02:11:23;100660.25;;;7.75;100.00
51369;BME280;37459;51.416;5.502;2022-12-20T02:14:00;100658.38;;;7.76;100.00
51369;BME280;37459;51.416;5.502;2022-12-20T02:16:37;100662.47;;;7.72;100.00
51369;BME280;37459;51.416;5.502;2022-12-20T02:19:11;100665.81;;;7.74;100.00
51369;BME280;37459;51.416;5.502;2022-12-20T02:21:44;100654.66;;;7.70;100.00
51369;BME280;37459;51.416;5.502;2022-12-20T02:27:45;100638.56;;;7.70;100.00
51369;BME280;37459;51.416;5.502;2022-12-20T02:30:16;100635.66;;;7.72;100.00
51369;BME280;37459;51.416;5.502;2022-12-20T02:32:52;100628.06;;;7.75;100.00
51369;BME280;37459;51.416;5.502;2022-12-20T02:35:22;100624.19;;;7.85;100.00
51369;BME280;37459;51.416;5.502;2022-12-20T02:37:51;100620.41;;;7.72;100.00
51369;BME280;37459;51.416;5.502;2022-12-20T02:40:22;100612.53;;;7.71;100.00
51369;BME280;37459;51.416;5.502;2022-12-20T02:42:51;100574.88;;;7.51;100.00
51369;BME280;37459;51.416;5.502;2022-12-20T02:45:25;100597.66;;;7.68;100.00
51369;BME280;37459;51.416;5.502;2022-12-20T02:47:54;100615.31;;;7.84;100.00
51369;BME280;37459;51.416;5.502;2022-12-20T02:50:25;100601.03;;;7.77;100.00
51369;BME280;37459;51.416;5.502;2022-12-20T02:52:55;100610.53;;;7.79;100.00
51369;BME280;37459;51.416;5.502;2022-12-20T02:55:25;100606.44;;;7.84;100.00
51369;BME280;37459;51.416;5.502;2022-12-20T02:57:59;100597.38;;;7.91;100.00
51369;BME280;37459;51.416;5.502;2022-12-20T03:00:31;100606.94;;;8.00;100.00
51369;BME280;37459;51.416;5.502;2022-12-20T03:03:00;100591.78;;;7.86;100.00
51369;BME280;37459;51.416;5.502;2022-12-20T03:05:45;100615.03;;;8.07;100.00
51369;BME280;37459;51.416;5.502;2022-12-20T03:08:12;100616.84;;;8.07;100.00
51369;BME280;37459;51.416;5.502;2022-12-20T03:10:39;100618.75;;;8.13;100.00
51369;BME280;37459;51.416;5.502;2022-12-20T03:13:06;100595.16;;;8.01;100.00
51369;BME280;37459;51.416;5.502;2022-12-20T03:15:34;100609.06;;;8.12;100.00
51369;BME280;37459;51.416;5.502;2022-12-20T03:18:01;100616.91;;;8.13;100.00
51369;BME280;37459;51.416;5.502;2022-12-20T03:20:28;100610.72;;;8.19;100.00
51369;BME280;37459;51.416;5.502;2022-12-20T03:22:54;100607.88;;;8.28;100.00
51369;BME280;37459;51.416;5.502;2022-12-20T03:25:21;100599.22;;;8.32;100.00
51369;BME280;37459;51.416;5.502;2022-12-20T03:27:47;100593.84;;;8.32;100.00
51369;BME280;37459;51.416;5.502;2022-12-20T03:30:14;100589.69;;;8.30;100.00
51369;BME280;37459;51.416;5.502;2022-12-20T03:32:42;100589.69;;;8.23;100.00
51369;BME280;37459;51.416;5.502;2022-12-20T03:35:09;100605.84;;;8.36;100.00
51369;BME280;37459;51.416;5.502;2022-12-20T03:37:35;100610.44;;;8.42;100.00
51369;BME280;37459;51.416;5.502;2022-12-20T03:40:02;100608.72;;;8.35;100.00
51369;BME280;37459;51.416;5.502;2022-12-20T03:42:29;100606.31;;;8.47;100.00
51369;BME280;37459;51.416;5.502;2022-12-20T03:44:56;100606.13;;;8.41;100.00
51369;BME280;37459;51.416;5.502;2022-12-20T03:47:22;100609.03;;;8.53;100.00
51369;BME280;37459;51.416;5.502;2022-12-20T03:49:50;100571.06;;;8.21;100.00
51369;BME280;37459;51.416;5.502;2022-12-20T03:52:17;100596.41;;;8.47;100.00
51369;BME280;37459;51.416;5.502;2022-12-20T03:54:43;100576.28;;;8.30;100.00
51369;BME280;37459;51.416;5.502;2022-12-20T03:57:11;100613.31;;;8.41;100.00
51369;BME280;37459;51.416;5.502;2022-12-20T03:59:38;100607.56;;;8.44;100.00
51369;BME280;37459;51.416;5.502;2022-12-20T04:02:04;100603.03;;;8.51;100.00
51369;BME280;37459;51.416;5.502;2022-12-20T04:04:31;100606.31;;;8.47;100.00
51369;BME280;37459;51.416;5.502;2022-12-20T04:06:59;100603.22;;;8.50;100.00
51369;BME280;37459;51.416;5.502;2022-12-20T04:09:25;100599.91;;;8.48;100.00
51369;BME280;37459;51.416;5.502;2022-12-20T04:11:52;100594.94;;;8.45;100.00
51369;BME280;37459;51.416;5.502;2022-12-20T04:14:18;100596.81;;;8.44;100.00
51369;BME280;37459;51.416;5.502;2022-12-20T04:16:45;100591.28;;;8.59;100.00
51369;BME280;37459;51.416;5.502;2022-12-20T04:19:11;100594.53;;;8.48;100.00
51369;BME280;37459;51.416;5.502;2022-12-20T04:21:38;100584.00;;;8.46;100.00
51369;BME280;37459;51.416;5.502;2022-12-20T04:24:09;100593.53;;;8.49;100.00
51369;BME280;37459;51.416;5.502;2022-12-20T04:26:36;100584.41;;;8.50;100.00
51369;BME280;37459;51.416;5.502;2022-12-20T04:29:03;100570.09;;;8.36;100.00
51369;BME280;37459;51.416;5.502;2022-12-20T04:31:30;100588.97;;;8.49;100.00
51369;BME280;37459;51.416;5.502;2022-12-20T04:33:56;100596.41;;;8.54;100.00
51369;BME280;37459;51.416;5.502;2022-12-20T04:36:23;100587.97;;;8.57;100.00
51369;BME280;37459;51.416;5.502;2022-12-20T04:38:50;100592.72;;;8.55;100.00
51369;BME280;37459;51.416;5.502;2022-12-20T04:41:18;100576.97;;;8.52;100.00
51369;BME280;37459;51.416;5.502;2022-12-20T04:43:55;100582.34;;;8.52;100.00
51369;BME280;37459;51.416;5.502;2022-12-20T04:46:23;100570.78;;;8.51;100.00
51369;BME280;37459;51.416;5.502;2022-12-20T04:48:50;100589.00;;;8.62;100.00
51369;BME280;37459;51.416;5.502;2022-12-20T04:51:16;100575.78;;;8.61;100.00
51369;BME280;37459;51.416;5.502;2022-12-20T04:53:43;100561.50;;;8.67;100.00
51369;BME280;37459;51.416;5.502;2022-12-20T04:56:12;100559.03;;;8.66;100.00
51369;BME280;37459;51.416;5.502;2022-12-20T04:58:40;100555.50;;;8.65;100.00
51369;BME280;37459;51.416;5.502;2022-12-20T05:01:07;100563.38;;;8.73;100.00
51369;BME280;37459;51.416;5.502;2022-12-20T05:03:33;100550.56;;;8.62;100.00
51369;BME280;37459;51.416;5.502;2022-12-20T05:06:00;100559.25;;;8.64;100.00
51369;BME280;37459;51.416;5.502;2022-12-20T05:08:27;100553.84;;;8.57;100.00
51369;BME280;37459;51.416;5.502;2022-12-20T05:10:53;100557.16;;;8.59;100.00
51369;BME280;37459;51.416;5.502;2022-12-20T05:13:20;100534.00;;;8.52;100.00
51369;BME280;37459;51.416;5.502;2022-12-20T05:15:50;100556.34;;;8.59;100.00
51369;BME280;37459;51.416;5.502;2022-12-20T05:18:17;100539.78;;;8.49;100.00
51369;BME280;37459;51.416;5.502;2022-12-20T05:20:44;100546.81;;;8.56;100.00
51369;BME280;37459;51.416;5.502;2022-12-20T05:23:11;100554.06;;;8.56;100.00
51369;BME280;37459;51.416;5.502;2022-12-20T05:25:55;100515.59;;;8.42;100.00
51369;BME280;37459;51.416;5.502;2022-12-20T05:28:39;100530.69;;;8.50;100.00
51369;BME280;37459;51.416;5.502;2022-12-20T05:31:07;100530.69;;;8.50;100.00
51369;BME280;37459;51.416;5.502;2022-12-20T05:33:34;100520.31;;;8.40;100.00
51369;BME280;37459;51.416;5.502;2022-12-20T05:36:01;100526.56;;;8.47;100.00
51369;BME280;37459;51.416;5.502;2022-12-20T05:38:27;100531.53;;;8.50;100.00
51369;BME280;37459;51.416;5.502;2022-12-20T05:40:54;100529.25;;;8.47;100.00
51369;BME280;37459;51.416;5.502;2022-12-20T05:43:20;100513.31;;;8.46;100.00
51369;BME280;37459;51.416;5.502;2022-12-20T05:45:47;100515.81;;;8.60;100.00
51369;BME280;37459;51.416;5.502;2022-12-20T05:48:16;100515.81;;;8.54;100.00
51369;BME280;37459;51.416;5.502;2022-12-20T05:50:43;100522.00;;;8.48;100.00
51369;BME280;37459;51.416;5.502;2022-12-20T05:53:10;100525.72;;;8.47;100.00
51369;BME280;37459;51.416;5.502;2022-12-20T05:55:42;100520.78;;;8.50;100.00
51369;BME280;37459;51.416;5.502;2022-12-20T05:58:08;100519.53;;;8.53;100.00
51369;BME280;37459;51.416;5.502;2022-12-20T06:00:37;100505.06;;;8.47;100.00
51369;BME280;37459;51.416;5.502;2022-12-20T06:03:04;100504.69;;;8.57;100.00
51369;BME280;37459;51.416;5.502;2022-12-20T06:05:32;100500.94;;;8.58;100.00
51369;BME280;37459;51.416;5.502;2022-12-20T06:07:59;100493.94;;;8.50;100.00
51369;BME280;37459;51.416;5.502;2022-12-20T06:10:25;100490.81;;;8.47;100.00
51369;BME280;37459;51.416;5.502;2022-12-20T06:12:52;100476.56;;;8.46;100.00
51369;BME280;37459;51.416;5.502;2022-12-20T06:15:18;100473.66;;;8.48;100.00
51369;BME280;37459;51.416;5.502;2022-12-20T06:17:45;100472.63;;;8.55;100.00
51369;BME280;37459;51.416;5.502;2022-12-20T06:20:12;100460.00;;;8.49;100.00
51369;BME280;37459;51.416;5.502;2022-12-20T06:22:40;100479.44;;;8.51;100.00
51369;BME280;37459;51.416;5.502;2022-12-20T06:25:07;100478.19;;;8.67;99.42
51369;BME280;37459;51.416;5.502;2022-12-20T06:27:35;100471.38;;;8.58;99.38
51369;BME280;37459;51.416;5.502;2022-12-20T06:30:02;100478.19;;;8.54;99.82
51369;BME280;37459;51.416;5.502;2022-12-20T06:32:29;100481.72;;;8.54;100.00
51369;BME280;37459;51.416;5.502;2022-12-20T06:34:55;100472.00;;;8.53;99.95
51369;BME280;37459;51.416;5.502;2022-12-20T06:37:22;100476.56;;;8.46;99.31
51369;BME280;37459;51.416;5.502;2022-12-20T06:39:50;100479.25;;;8.46;99.62
51369;BME280;37459;51.416;5.502;2022-12-20T06:42:17;100481.06;;;8.46;99.58
51369;BME280;37459;51.416;5.502;2022-12-20T06:44:43;100477.19;;;8.41;99.49
51369;BME280;37459;51.416;5.502;2022-12-20T06:47:10;100473.44;;;8.42;99.30
51369;BME280;37459;51.416;5.502;2022-12-20T06:49:37;100457.53;;;8.48;98.39
51369;BME280;37459;51.416;5.502;2022-12-20T06:52:04;100461.66;;;8.43;98.03
51369;BME280;37459;51.416;5.502;2022-12-20T06:54:30;100471.56;;;8.43;98.06
51369;BME280;37459;51.416;5.502;2022-12-20T06:56:58;100471.19;;;8.46;99.38
51369;BME280;37459;51.416;5.502;2022-12-20T06:59:25;100478.44;;;8.52;98.73
51369;BME280;37459;51.416;5.502;2022-12-20T07:01:52;100481.31;;;8.57;97.87
51369;BME280;37459;51.416;5.502;2022-12-20T07:04:18;100480.50;;;8.57;96.91
51369;BME280;37459;51.416;5.502;2022-12-20T07:06:45;100486.50;;;8.52;97.86
51369;BME280;37459;51.416;5.502;2022-12-20T07:09:12;100484.63;;;8.46;97.41
51369;BME280;37459;51.416;5.502;2022-12-20T07:11:38;100470.97;;;8.48;97.58
51369;BME280;37459;51.416;5.502;2022-12-20T07:14:08;100470.34;;;8.46;97.90
51369;BME280;37459;51.416;5.502;2022-12-20T07:16:36;100486.06;;;8.42;97.60
51369;BME280;37459;51.416;5.502;2022-12-20T07:19:02;100480.44;;;8.43;97.14
51369;BME280;37459;51.416;5.502;2022-12-20T07:21:29;100436.41;;;8.18;97.57
51369;BME280;37459;51.416;5.502;2022-12-20T07:23:56;100486.88;;;8.42;96.80
51369;BME280;37459;51.416;5.502;2022-12-20T07:26:23;100481.50;;;8.42;96.97
51369;BME280;37459;51.416;5.502;2022-12-20T07:28:49;100479.44;;;8.45;96.85
51369;BME280;37459;51.416;5.502;2022-12-20T07:31:17;100479.44;;;8.45;98.07
51369;BME280;37459;51.416;5.502;2022-12-20T07:33:44;100476.94;;;8.43;96.88
51369;BME280;37459;51.416;5.502;2022-12-20T07:36:13;100482.94;;;8.52;96.25
51369;BME280;37459;51.416;5.502;2022-12-20T07:38:40;100490.63;;;8.48;96.24
51369;BME280;37459;51.416;5.502;2022-12-20T07:41:07;100486.44;;;8.46;97.01
51369;BME280;37459;51.416;5.502;2022-12-20T07:43:34;100484.00;;;8.44;96.06
51369;BME280;37459;51.416;5.502;2022-12-20T07:46:02;100497.25;;;8.59;94.94
51369;BME280;37459;51.416;5.502;2022-12-20T07:48:30;100477.78;;;8.43;95.22
51369;BME280;37459;51.416;5.502;2022-12-20T07:50:59;100488.56;;;8.50;95.66
51369;BME280;37459;51.416;5.502;2022-12-20T07:53:28;100491.44;;;8.49;95.93
51369;BME280;37459;51.416;5.502;2022-12-20T07:55:57;100496.38;;;8.52;96.23
51369;BME280;37459;51.416;5.502;2022-12-20T07:58:26;100497.22;;;8.52;95.70
51369;BME280;37459;51.416;5.502;2022-12-20T08:00:54;100489.38;;;8.51;96.01
51369;BME280;37459;51.416;5.502;2022-12-20T08:03:24;100503.00;;;8.56;96.17
51369;BME280;37459;51.416;5.502;2022-12-20T08:05:57;100494.31;;;8.54;96.10
51369;BME280;37459;51.416;5.502;2022-12-20T08:08:29;100506.75;;;8.61;96.37
51369;BME280;37459;51.416;5.502;2022-12-20T08:10:57;100500.13;;;8.64;96.37
51369;BME280;37459;51.416;5.502;2022-12-20T08:13:25;100504.69;;;8.70;96.59
51369;BME280;37459;51.416;5.502;2022-12-20T08:15:51;100508.00;;;8.66;97.58
51369;BME280;37459;51.416;5.502;2022-12-20T08:18:18;100488.56;;;8.70;96.38
51369;BME280;37459;51.416;5.502;2022-12-20T08:20:45;100493.94;;;8.63;97.43
51369;BME280;37459;51.416;5.502;2022-12-20T08:23:13;100502.19;;;8.69;98.00
51369;BME280;37459;51.416;5.502;2022-12-20T08:25:40;100504.69;;;8.77;98.69
51369;BME280;37459;51.416;5.502;2022-12-20T08:28:07;100500.56;;;8.74;98.31
51369;BME280;37459;51.416;5.502;2022-12-20T08:30:33;100496.63;;;8.70;98.64
51369;BME280;37459;51.416;5.502;2022-12-20T08:33:00;100502.81;;;8.64;99.31
51369;BME280;37459;51.416;5.502;2022-12-20T08:35:27;100493.31;;;8.68;99.12
51369;BME280;37459;51.416;5.502;2022-12-20T08:37:53;100495.75;;;8.63;100.00
51369;BME280;37459;51.416;5.502;2022-12-20T08:40:22;100489.81;;;8.61;100.00
51369;BME280;37459;51.416;5.502;2022-12-20T08:42:49;100493.69;;;8.65;100.00
51369;BME280;37459;51.416;5.502;2022-12-20T08:45:16;100479.00;;;8.48;100.00
51369;BME280;37459;51.416;5.502;2022-12-20T08:47:43;100474.88;;;8.52;100.00
51369;BME280;37459;51.416;5.502;2022-12-20T08:50:10;100485.88;;;8.57;100.00
51369;BME280;37459;51.416;5.502;2022-12-20T08:52:38;100472.00;;;8.47;100.00
51369;BME280;37459;51.416;5.502;2022-12-20T08:55:05;100485.63;;;8.52;100.00
51369;BME280;37459;51.416;5.502;2022-12-20T08:57:33;100480.69;;;8.49;100.00
51369;BME280;37459;51.416;5.502;2022-12-20T09:00:00;100470.34;;;8.46;100.00
51369;BME280;37459;51.416;5.502;2022-12-20T09:02:27;100468.25;;;8.41;100.00
51369;BME280;37459;51.416;5.502;2022-12-20T09:04:53;100461.22;;;8.33;100.00
51369;BME280;37459;51.416;5.502;2022-12-20T09:07:21;100468.28;;;8.48;100.00
51369;BME280;37459;51.416;5.502;2022-12-20T09:09:47;100458.72;;;8.38;100.00
51369;BME280;37459;51.416;5.502;2022-12-20T09:12:14;100459.56;;;8.39;100.00
51369;BME280;37459;51.416;5.502;2022-12-20T09:14:42;100456.28;;;8.43;100.00
51369;BME280;37459;51.416;5.502;2022-12-20T09:17:09;100457.53;;;8.41;100.00
51369;BME280;37459;51.416;5.502;2022-12-20T09:19:36;100472.81;;;8.40;100.00
51369;BME280;37459;51.416;5.502;2022-12-20T09:22:02;100461.69;;;8.50;100.00
51369;BME280;37459;51.416;5.502;2022-12-20T09:24:32;100457.72;;;8.39;100.00
51369;BME280;37459;51.416;5.502;2022-12-20T09:26:59;100459.63;;;8.59;100.00
51369;BME280;37459;51.416;5.502;2022-12-20T09:29:25;100460.44;;;8.66;100.00
51369;BME280;37459;51.416;5.502;2022-12-20T09:31:53;100465.00;;;8.59;100.00
51369;BME280;37459;51.416;5.502;2022-12-20T09:34:20;100474.28;;;8.63;100.00
51369;BME280;37459;51.416;5.502;2022-12-20T09:36:47;100459.19;;;8.69;100.00
51369;BME280;37459;51.416;5.502;2022-12-20T09:39:13;100464.56;;;8.62;100.00
51369;BME280;37459;51.416;5.502;2022-12-20T09:41:41;100462.50;;;8.64;100.00
51369;BME280;37459;51.416;5.502;2022-12-20T09:44:13;100467.88;;;8.64;100.00
51369;BME280;37459;51.416;5.502;2022-12-20T09:46:42;100458.56;;;8.67;100.00
51369;BME280;37459;51.416;5.502;2022-12-20T09:49:14;100479.44;;;8.78;100.00
51369;BME280;37459;51.416;5.502;2022-12-20T09:51:52;100479.44;;;8.71;100.00
51369;BME280;37459;51.416;5.502;2022-12-20T09:54:30;100466.25;;;8.70;100.00
51369;BME280;37459;51.416;5.502;2022-12-20T09:57:06;100458.38;;;8.68;100.00
51369;BME280;37459;51.416;5.502;2022-12-20T09:59:39;100453.81;;;8.75;100.00
51369;BME280;37459;51.416;5.502;2022-12-20T10:02:08;100456.69;;;8.74;100.00
51369;BME280;37459;51.416;5.502;2022-12-20T10:04:37;100460.00;;;8.76;100.00
51369;BME280;37459;51.416;5.502;2022-12-20T10:07:16;100457.56;;;8.68;100.00
51369;BME280;37459;51.416;5.502;2022-12-20T10:10:05;100454.44;;;8.77;100.00
51369;BME280;37459;51.416;5.502;2022-12-20T10:12:40;100451.56;;;8.79;100.00
51369;BME280;37459;51.416;5.502;2022-12-20T10:15:18;100453.19;;;8.87;100.00
51369;BME280;37459;51.416;5.502;2022-12-20T10:17:53;100442.66;;;8.85;100.00
51369;BME280;37459;51.416;5.502;2022-12-20T10:20:25;100452.34;;;8.93;100.00
51369;BME280;37459;51.416;5.502;2022-12-20T10:22:59;100454.66;;;8.89;100.00
51369;BME280;37459;51.416;5.502;2022-12-20T10:25:29;100449.47;;;8.88;100.00
51369;BME280;37459;51.416;5.502;2022-12-20T10:27:57;100436.84;;;8.88;100.00
51369;BME280;37459;51.416;5.502;2022-12-20T10:30:27;100458.78;;;8.98;100.00
51369;BME280;37459;51.416;5.502;2022-12-20T10:32:55;100459.78;;;9.04;100.00
51369;BME280;37459;51.416;5.502;2022-12-20T10:35:26;100447.59;;;8.95;100.00
51369;BME280;37459;51.416;5.502;2022-12-20T10:37:59;100443.47;;;8.92;100.00
51369;BME280;37459;51.416;5.502;2022-12-20T10:40:28;100442.03;;;8.90;100.00
51369;BME280;37459;51.416;5.502;2022-12-20T10:42:56;100438.53;;;8.89;100.00
51369;BME280;37459;51.416;5.502;2022-12-20T10:45:28;100416.00;;;8.70;100.00
51369;BME280;37459;51.416;5.502;2022-12-20T10:47:59;100436.84;;;8.95;100.00
51369;BME280;37459;51.416;5.502;2022-12-20T10:50:28;100438.50;;;8.82;100.00
51369;BME280;37459;51.416;5.502;2022-12-20T10:53:14;100435.22;;;8.80;100.00
51369;BME280;37459;51.416;5.502;2022-12-20T10:55:44;100426.13;;;8.75;100.00
51369;BME280;37459;51.416;5.502;2022-12-20T10:58:14;100435.22;;;8.80;100.00
51369;BME280;37459;51.416;5.502;2022-12-20T11:00:42;100434.38;;;8.87;100.00
51369;BME280;37459;51.416;5.502;2022-12-20T11:03:13;100415.38;;;8.68;100.00
51369;BME280;37459;51.416;5.502;2022-12-20T11:05:52;100430.69;;;8.74;100.00
51369;BME280;37459;51.416;5.502;2022-12-20T11:08:20;100430.47;;;8.69;100.00
51369;BME280;37459;51.416;5.502;2022-12-20T11:10:48;100422.41;;;8.56;100.00
51369;BME280;37459;51.416;5.502;2022-12-20T11:13:21;100419.53;;;8.57;100.00
51369;BME280;37459;51.416;5.502;2022-12-20T11:15:49;100422.41;;;8.62;100.00
51369;BME280;37459;51.416;5.502;2022-12-20T11:18:25;100419.72;;;8.62;100.00
51369;BME280;37459;51.416;5.502;2022-12-20T11:21:07;100420.34;;;8.64;100.00
51369;BME280;37459;51.416;5.502;2022-12-20T11:23:40;100415.16;;;8.63;100.00
51369;BME280;37459;51.416;5.502;2022-12-20T11:26:21;100423.63;;;8.67;100.00
51369;BME280;37459;51.416;5.502;2022-12-20T11:29:03;100422.19;;;8.64;100.00
51369;BME280;37459;51.416;5.502;2022-12-20T11:31:43;100420.34;;;8.58;100.00
51369;BME280;37459;51.416;5.502;2022-12-20T11:34:22;100420.75;;;8.61;100.00
51369;BME280;37459;51.416;5.502;2022-12-20T11:37:08;100410.00;;;8.61;100.00
51369;BME280;37459;51.416;5.502;2022-12-20T11:42:46;100415.16;;;8.56;100.00
51369;BME280;37459;51.416;5.502;2022-12-20T11:45:21;100407.94;;;8.57;100.00
51369;BME280;37459;51.416;5.502;2022-12-20T11:50:48;100405.66;;;8.54;100.00
51369;BME280;37459;51.416;5.502;2022-12-20T11:53:25;100399.91;;;8.57;100.00
51369;BME280;37459;51.416;5.502;2022-12-20T11:55:57;100392.44;;;8.59;100.00
51369;BME280;37459;51.416;5.502;2022-12-20T11:58:28;100400.91;;;8.62;100.00
51369;BME280;37459;51.416;5.502;2022-12-20T12:00:59;100363.94;;;8.45;100.00
51369;BME280;37459;51.416;5.502;2022-12-20T12:03:32;100388.09;;;8.58;100.00
51369;BME280;37459;51.416;5.502;2022-12-20T12:06:03;100373.22;;;8.49;100.00
51369;BME280;37459;51.416;5.502;2022-12-20T12:08:39;100389.34;;;8.62;100.00
51369;BME280;37459;51.416;5.502;2022-12-20T12:11:13;100374.84;;;8.56;100.00
51369;BME280;37459;51.416;5.502;2022-12-20T12:13:42;100378.16;;;8.65;100.00
51369;BME280;37459;51.416;5.502;2022-12-20T12:16:11;100370.72;;;8.60;100.00
51369;BME280;37459;51.416;5.502;2022-12-20T12:18:42;100384.78;;;8.62;100.00
51369;BME280;37459;51.416;5.502;2022-12-20T12:21:21;100385.00;;;8.68;100.00
51369;BME280;37459;51.416;5.502;2022-12-20T12:23:59;100381.28;;;8.62;100.00
51369;BME280;37459;51.416;5.502;2022-12-20T12:26:28;100377.75;;;8.68;100.00
51369;BME280;37459;51.416;5.502;2022-12-20T12:28:57;100378.16;;;8.65;100.00
51369;BME280;37459;51.416;5.502;2022-12-20T12:31:29;100380.25;;;8.70;100.00
51369;BME280;37459;51.416;5.502;2022-12-20T12:34:08;100386.66;;;8.62;100.00
51369;BME280;37459;51.416;5.502;2022-12-20T12:37:12;100390.97;;;8.56;100.00
51369;BME280;37459;51.416;5.502;2022-12-20T12:43:20;100382.91;;;8.63;100.00
51369;BME280;37459;51.416;5.502;2022-12-20T12:45:59;100376.09;;;8.54;100.00
51369;BME280;37459;51.416;5.502;2022-12-20T12:48:31;100380.84;;;8.58;100.00
51369;BME280;37459;51.416;5.502;2022-12-20T12:51:00;100368.66;;;8.56;100.00
51369;BME280;37459;51.416;5.502;2022-12-20T12:53:33;100376.09;;;8.60;100.00
51369;BME280;37459;51.416;5.502;2022-12-20T12:59:23;100367.22;;;8.60;100.00
51369;BME280;37459;51.416;5.502;2022-12-20T13:01:51;100374.84;;;8.56;100.00
51369;BME280;37459;51.416;5.502;2022-12-20T13:04:24;100374.47;;;8.59;100.00
51369;BME280;37459;51.416;5.502;2022-12-20T13:07:00;100367.84;;;8.55;100.00
51369;BME280;37459;51.416;5.502;2022-12-20T13:09:38;100364.72;;;8.65;100.00
51369;BME280;37459;51.416;5.502;2022-12-20T13:18:29;100364.72;;;8.58;100.00
51369;BME280;37459;51.416;5.502;2022-12-20T13:21:26;100358.97;;;8.61;100.00
51369;BME280;37459;51.416;5.502;2022-12-20T13:27:01;100362.50;;;8.49;100.00
51369;BME280;37459;51.416;5.502;2022-12-20T13:29:33;100362.06;;;8.45;100.00